Time;durP1;ratioP1;P1;durP2;ratioP2;P2;SDS_P1;SDS_P2;PMS_P1;PMS_P2;Temp;Humidity;BMP_temperature;BMP_pressure;BME280_temperature;BME280_humidity;BME280_pressure;Samples;Min_cycle;Max_cycle;Signal;HPM_P1;HPM_P2
2021/06/30 00:00:40;;;;;;;28.33;26.03;;;20.70;1.00;;;;;;5061260;28;20463;-76
2021/06/30 00:03:07;;;;;;;27.30;25.00;;;20.70;1.00;;;;;;5073847;28;20873;-77
2021/06/30 00:05:34;;;;;;;28.33;25.93;;;20.70;1.00;;;;;;5064556;28;20475;-77
2021/06/30 00:08:01;;;;;;;30.30;27.90;;;20.70;1.00;;;;;;5067507;28;20445;-76
2021/06/30 00:10:28;;;;;;;27.80;25.37;;;20.70;1.00;;;;;;5059434;28;21433;-77
2021/06/30 00:12:55;;;;;;;31.30;28.77;;;20.80;1.00;;;;;;5068697;28;20955;-77
2021/06/30 00:15:25;;;;;;;30.23;27.70;;;20.70;1.00;;;;;;5061575;28;20459;-77
2021/06/30 00:17:52;;;;;;;29.33;26.90;;;20.80;1.00;;;;;;5073199;28;20447;-77
2021/06/30 00:20:19;;;;;;;28.87;26.57;;;20.80;1.00;;;;;;5061361;28;20962;-77
2021/06/30 00:22:46;;;;;;;30.97;28.30;;;20.90;1.00;;;;;;5062171;28;20448;-77
2021/06/30 00:25:13;;;;;;;29.20;26.80;;;20.90;1.00;;;;;;5068404;28;20455;-77
2021/06/30 00:27:40;;;;;;;29.20;26.80;;;20.90;1.00;;;;;;5065375;28;21190;-77
2021/06/30 00:30:09;;;;;;;29.37;26.93;;;20.90;1.00;;;;;;5058800;28;20533;-77
2021/06/30 00:32:37;;;;;;;29.23;26.70;;;20.90;1.00;;;;;;5065899;28;21309;-77
2021/06/30 00:35:04;;;;;;;30.43;27.93;;;21.00;1.00;;;;;;5071326;28;20460;-76
2021/06/30 00:37:31;;;;;;;29.27;26.77;;;21.00;1.00;;;;;;5061892;28;21056;-77
2021/06/30 00:39:57;;;;;;;30.03;27.33;;;21.00;1.00;;;;;;5066893;28;20482;-77
2021/06/30 00:42:24;;;;;;;32.00;29.30;;;21.00;1.00;;;;;;5051381;28;21270;-77
2021/06/30 00:44:50;;;;;;;29.67;27.00;;;21.10;1.00;;;;;;5072334;28;20490;-77
2021/06/30 00:47:19;;;;;;;30.70;28.10;;;21.10;1.00;;;;;;5062466;28;20464;-77
2021/06/30 00:49:47;;;;;;;30.37;27.97;;;21.10;1.00;;;;;;5078480;28;20535;-77
2021/06/30 00:52:13;;;;;;;32.67;29.73;;;21.10;1.00;;;;;;5067898;28;20432;-77
2021/06/30 00:54:40;;;;;;;31.97;29.47;;;21.10;1.00;;;;;;5065224;28;20455;-77
2021/06/30 00:57:09;;;;;;;35.10;32.20;;;21.10;1.00;;;;;;5065655;28;20443;-77
2021/06/30 00:59:37;;;;;;;32.70;30.00;;;21.10;1.00;;;;;;5071030;28;20476;-76
2021/06/30 01:02:04;;;;;;;34.37;31.57;;;21.00;1.00;;;;;;5064935;28;20454;-77
2021/06/30 01:04:31;;;;;;;33.23;30.47;;;20.90;1.00;;;;;;5064347;28;20459;-77
2021/06/30 01:06:59;;;;;;;33.13;30.33;;;20.80;1.00;;;;;;5069175;28;20515;-77
2021/06/30 01:09:26;;;;;;;34.60;31.60;;;20.70;1.00;;;;;;5062668;28;20461;-76
2021/06/30 01:11:52;;;;;;;36.33;33.27;;;20.70;1.00;;;;;;5067193;28;20459;-77
2021/06/30 01:14:26;;;;;;;35.77;32.77;;;20.60;1.00;;;;;;5057447;28;20460;-77
2021/06/30 01:16:53;;;;;;;36.53;33.43;;;20.60;1.00;;;;;;5072189;28;20446;-77
2021/06/30 01:19:21;;;;;;;35.43;32.47;;;20.60;1.00;;;;;;5063234;28;20451;-77
2021/06/30 01:21:48;;;;;;;36.50;33.50;;;20.50;1.00;;;;;;5072720;28;20441;-77
2021/06/30 01:24:16;;;;;;;39.23;35.33;;;20.50;1.00;;;;;;5068246;28;20449;-77
2021/06/30 01:26:43;;;;;;;38.60;34.73;;;20.40;1.00;;;;;;5066559;28;20410;-77
2021/06/30 01:29:11;;;;;;;38.40;35.00;;;20.40;1.00;;;;;;5082692;28;20553;-77
2021/06/30 01:31:37;;;;;;;38.73;35.30;;;20.30;1.00;;;;;;5065352;28;20481;-76
2021/06/30 01:34:04;;;;;;;36.70;33.50;;;20.20;1.00;;;;;;5063503;28;20492;-76
2021/06/30 01:36:44;;;;;;;38.93;35.53;;;20.10;1.00;;;;;;5065615;28;20457;-77
2021/06/30 01:39:10;;;;;;;41.93;38.20;;;20.00;1.00;;;;;;5068046;28;21505;-76
2021/06/30 01:41:38;;;;;;;40.70;37.00;;;20.00;1.00;;;;;;5061386;28;21604;-76
2021/06/30 01:44:06;;;;;;;41.13;37.60;;;20.10;1.00;;;;;;5070297;28;20663;-76
2021/06/30 01:46:32;;;;;;;43.20;39.37;;;20.10;1.00;;;;;;5059133;28;20458;-76
2021/06/30 01:48:59;;;;;;;39.57;36.10;;;20.10;1.00;;;;;;5068608;28;20447;-76
2021/06/30 01:51:26;;;;;;;41.40;37.33;;;20.10;1.00;;;;;;5058402;28;20471;-76
2021/06/30 01:53:55;;;;;;;42.77;38.87;;;20.10;1.00;;;;;;5070182;28;20463;-76
2021/06/30 01:56:24;;;;;;;41.57;37.83;;;20.10;1.00;;;;;;5071184;28;20446;-75
2021/06/30 01:58:59;;;;;;;41.03;37.07;;;20.10;1.00;;;;;;5063282;28;20424;-76
2021/06/30 02:01:26;;;;;;;42.27;38.10;;;20.00;1.00;;;;;;5071909;28;20458;-76
2021/06/30 02:03:52;;;;;;;41.80;37.83;;;20.00;1.00;;;;;;5065619;28;20537;-75
2021/06/30 02:06:19;;;;;;;41.10;37.30;;;19.90;1.00;;;;;;5065185;28;20433;-76
2021/06/30 02:08:45;;;;;;;40.97;37.27;;;19.90;1.00;;;;;;5064462;28;20460;-76
2021/06/30 02:11:12;;;;;;;39.63;36.00;;;19.80;1.00;;;;;;5066400;28;20463;-76
2021/06/30 02:13:39;;;;;;;43.80;39.80;;;19.90;1.00;;;;;;5064169;28;20462;-76
2021/06/30 02:16:07;;;;;;;43.17;39.17;;;19.90;1.00;;;;;;5077133;28;20439;-76
2021/06/30 02:18:34;;;;;;;42.33;38.67;;;19.90;1.00;;;;;;5062054;28;20447;-76
2021/06/30 02:21:01;;;;;;;41.00;37.30;;;19.90;1.00;;;;;;5071903;28;20451;-76
2021/06/30 02:23:28;;;;;;;42.17;38.37;;;19.90;1.00;;;;;;5064596;28;20930;-77
2021/06/30 02:25:54;;;;;;;43.53;39.73;;;20.00;1.00;;;;;;5066511;28;20491;-76
2021/06/30 02:28:21;;;;;;;44.23;40.10;;;20.00;1.00;;;;;;5063430;28;20463;-76
2021/06/30 02:30:48;;;;;;;42.47;38.67;;;20.00;1.00;;;;;;5067592;28;20408;-76
2021/06/30 02:33:16;;;;;;;40.97;37.43;;;20.00;1.00;;;;;;5066688;28;20450;-76
2021/06/30 02:35:43;;;;;;;41.37;37.77;;;20.00;1.00;;;;;;5060523;28;20466;-76
2021/06/30 02:38:10;;;;;;;40.40;36.80;;;20.00;1.00;;;;;;5069207;28;20461;-76
2021/06/30 02:40:37;;;;;;;42.13;38.60;;;19.90;1.00;;;;;;5060503;28;21023;-76
2021/06/30 02:43:04;;;;;;;42.53;38.77;;;19.90;1.00;;;;;;5071161;28;20462;-75
2021/06/30 02:45:31;;;;;;;41.40;37.70;;;19.90;1.00;;;;;;5060235;28;20442;-78
2021/06/30 02:47:58;;;;;;;41.90;38.10;;;19.90;1.00;;;;;;5070602;28;21359;-77
2021/06/30 02:50:26;;;;;;;42.90;39.07;;;19.90;1.00;;;;;;5064022;28;21182;-76
2021/06/30 02:52:53;;;;;;;39.97;36.70;;;20.00;1.00;;;;;;5074412;28;20531;-76
2021/06/30 02:55:22;;;;;;;43.50;39.60;;;20.00;1.00;;;;;;5057674;28;20961;-76
2021/06/30 02:57:52;;;;;;;44.23;40.40;;;19.90;1.00;;;;;;5072222;28;20458;-75
2021/06/30 03:00:21;;;;;;;43.63;39.80;;;20.00;1.00;;;;;;5060463;28;21472;-76
2021/06/30 03:02:48;;;;;;;42.90;39.10;;;20.00;1.00;;;;;;5061215;28;20447;-76
2021/06/30 03:05:15;;;;;;;44.77;40.97;;;19.90;1.00;;;;;;5065670;28;20438;-76
2021/06/30 03:07:43;;;;;;;44.77;40.97;;;20.00;1.00;;;;;;5063601;28;20457;-76
2021/06/30 03:10:12;;;;;;;43.30;39.80;;;20.00;1.00;;;;;;5066932;28;20458;-76
2021/06/30 03:12:38;;;;;;;42.53;38.87;;;20.00;1.00;;;;;;5061191;28;20946;-76
2021/06/30 03:15:07;;;;;;;45.37;41.37;;;20.00;1.00;;;;;;5068864;28;20476;-76
2021/06/30 03:17:35;;;;;;;41.90;38.10;;;20.00;1.00;;;;;;5062364;28;21391;-76
2021/06/30 03:20:02;;;;;;;41.70;38.07;;;20.00;1.00;;;;;;5065640;28;20475;-76
2021/06/30 03:22:28;;;;;;;41.83;38.10;;;20.00;1.00;;;;;;5060566;28;20461;-76
2021/06/30 03:24:56;;;;;;;40.00;36.53;;;20.00;1.00;;;;;;5073602;28;20451;-75
2021/06/30 03:27:23;;;;;;;39.53;36.13;;;20.00;1.00;;;;;;5062665;28;20443;-76
2021/06/30 03:29:50;;;;;;;38.10;34.80;;;20.00;1.00;;;;;;5074998;28;20475;-76
2021/06/30 03:32:16;;;;;;;39.07;35.57;;;19.90;1.00;;;;;;5063234;28;20423;-76
2021/06/30 03:34:43;;;;;;;39.30;35.97;;;19.90;1.00;;;;;;5062623;28;20452;-76
2021/06/30 03:37:10;;;;;;;42.60;38.53;;;19.90;1.00;;;;;;5072431;28;20442;-76
2021/06/30 03:39:38;;;;;;;41.70;38.20;;;19.90;1.00;;;;;;5075374;28;20486;-76
2021/06/30 03:42:06;;;;;;;38.67;35.43;;;19.90;1.00;;;;;;5063659;28;20470;-76
2021/06/30 03:44:33;;;;;;;38.23;34.70;;;20.00;1.00;;;;;;5062403;28;20462;-76
2021/06/30 03:46:59;;;;;;;40.70;37.30;;;19.90;1.00;;;;;;5070170;28;20531;-77
2021/06/30 03:49:26;;;;;;;41.27;37.63;;;19.90;1.00;;;;;;5062015;28;20468;-76
2021/06/30 03:51:53;;;;;;;42.17;38.47;;;19.90;1.00;;;;;;5064608;28;20947;-78
2021/06/30 03:54:24;;;;;;;43.37;39.67;;;19.90;1.00;;;;;;5062440;28;20415;-77
2021/06/30 03:56:51;;;;;;;37.30;34.00;;;19.90;1.00;;;;;;5073703;28;21795;-76
2021/06/30 03:59:19;;;;;;;36.07;32.73;;;19.90;1.00;;;;;;5058629;28;20451;-76
2021/06/30 04:01:45;;;;;;;37.30;34.10;;;19.80;1.00;;;;;;5065504;28;20471;-76
2021/06/30 04:04:13;;;;;;;35.33;32.30;;;19.80;1.00;;;;;;5059692;28;20448;-76
2021/06/30 04:06:40;;;;;;;35.13;32.13;;;19.70;1.00;;;;;;5070324;28;20461;-77
2021/06/30 04:09:07;;;;;;;35.20;32.27;;;19.80;1.00;;;;;;5065026;28;20967;-77
2021/06/30 04:11:34;;;;;;;37.20;34.00;;;19.80;1.00;;;;;;5068699;28;21414;-76
2021/06/30 04:14:01;;;;;;;38.77;35.47;;;19.90;1.00;;;;;;5063463;28;20558;-76
2021/06/30 04:16:29;;;;;;;37.40;34.27;;;19.90;1.00;;;;;;5059353;28;20464;-78
2021/06/30 04:18:56;;;;;;;38.33;34.97;;;19.80;1.00;;;;;;5069697;28;20440;-76
2021/06/30 04:21:23;;;;;;;40.07;36.60;;;19.80;1.00;;;;;;5065378;28;20450;-77
2021/06/30 04:23:52;;;;;;;41.00;37.40;;;19.80;1.00;;;;;;5069084;28;20446;-76
2021/06/30 04:26:19;;;;;;;43.90;39.80;;;19.80;1.00;;;;;;5066709;28;20476;-76
2021/06/30 04:28:46;;;;;;;46.97;42.23;;;19.90;1.00;;;;;;5080143;28;20456;-77
2021/06/30 04:31:12;;;;;;;43.63;39.33;;;19.90;1.00;;;;;;5064623;28;21237;-76
2021/06/30 04:33:40;;;;;;;39.30;35.90;;;19.90;1.00;;;;;;5075012;28;20446;-77
2021/06/30 04:36:07;;;;;;;39.47;36.07;;;19.90;1.00;;;;;;5067298;28;20458;-77
2021/06/30 04:38:34;;;;;;;38.70;35.33;;;19.80;1.00;;;;;;5071435;28;20439;-77
2021/06/30 04:41:00;;;;;;;38.07;34.67;;;19.70;1.00;;;;;;5064549;28;20985;-76
2021/06/30 04:43:27;;;;;;;38.07;34.67;;;19.70;1.00;;;;;;5067792;28;20449;-76
2021/06/30 04:45:54;;;;;;;37.87;34.57;;;19.60;1.00;;;;;;5068651;28;20588;-76
2021/06/30 04:48:21;;;;;;;37.03;33.83;;;19.60;1.00;;;;;;5070231;28;20457;-77
2021/06/30 04:50:49;;;;;;;38.67;35.27;;;19.50;1.00;;;;;;5070599;28;20520;-77
2021/06/30 04:53:15;;;;;;;38.83;35.30;;;19.50;1.00;;;;;;5069213;28;20530;-77
2021/06/30 04:55:42;;;;;;;43.43;39.43;;;19.40;1.00;;;;;;5071156;28;20549;-77
2021/06/30 04:58:09;;;;;;;36.37;33.20;;;19.40;1.00;;;;;;5062169;28;20546;-77
2021/06/30 05:00:36;;;;;;;36.20;33.00;;;19.40;1.00;;;;;;5072728;28;20542;-77
2021/06/30 05:03:03;;;;;;;37.93;34.73;;;19.50;1.00;;;;;;5060237;28;21166;-77
2021/06/30 05:05:29;;;;;;;36.87;33.50;;;19.50;1.00;;;;;;5076867;28;20558;-78
2021/06/30 05:07:58;;;;;;;37.10;34.00;;;19.50;1.00;;;;;;5063351;28;20554;-78
2021/06/30 05:10:25;;;;;;;36.90;33.57;;;19.50;1.00;;;;;;5058547;28;20470;-78
2021/06/30 05:12:52;;;;;;;35.63;32.60;;;19.50;1.00;;;;;;5062028;28;20466;-78
2021/06/30 05:15:19;;;;;;;36.13;32.93;;;19.40;1.00;;;;;;5068077;28;21444;-78
2021/06/30 05:17:46;;;;;;;34.97;32.17;;;19.40;1.00;;;;;;5067896;28;20450;-78
2021/06/30 05:20:13;;;;;;;33.67;30.87;;;19.40;1.00;;;;;;5067820;28;20473;-78
2021/06/30 05:22:40;;;;;;;35.30;32.10;;;19.40;1.00;;;;;;5069555;28;20455;-78
2021/06/30 05:25:09;;;;;;;35.77;32.67;;;19.40;1.00;;;;;;5068583;28;20958;-77
2021/06/30 05:27:35;;;;;;;36.07;32.87;;;19.50;1.00;;;;;;5070383;28;20440;-78
2021/06/30 05:30:02;;;;;;;35.70;32.57;;;19.50;1.00;;;;;;5060456;28;20988;-77
2021/06/30 05:32:29;;;;;;;34.00;31.10;;;19.50;1.00;;;;;;5069693;28;21206;-77
2021/06/30 05:34:56;;;;;;;32.97;30.27;;;19.60;1.00;;;;;;5067791;28;20444;-78
2021/06/30 05:37:22;;;;;;;33.10;30.37;;;19.50;1.00;;;;;;5079352;28;20539;-77
2021/06/30 05:39:49;;;;;;;32.20;29.57;;;19.50;1.00;;;;;;5060160;28;21044;-77
2021/06/30 05:42:17;;;;;;;29.47;26.93;;;19.50;1.00;;;;;;5074877;28;20452;-77
2021/06/30 05:44:44;;;;;;;27.73;25.53;;;19.50;1.00;;;;;;5062628;28;20458;-77
2021/06/30 05:47:10;;;;;;;27.13;24.73;;;19.50;1.00;;;;;;5070270;28;20448;-78
2021/06/30 05:49:37;;;;;;;27.90;25.60;;;19.40;1.00;;;;;;5062828;28;20463;-77
2021/06/30 05:52:04;;;;;;;27.10;24.90;;;19.40;1.00;;;;;;5071573;28;20488;-77
2021/06/30 05:54:31;;;;;;;25.20;23.10;;;19.40;1.00;;;;;;5070301;28;20438;-77
2021/06/30 05:56:58;;;;;;;26.60;24.20;;;19.30;1.00;;;;;;5068248;28;20540;-77
2021/06/30 05:59:26;;;;;;;27.77;25.50;;;19.30;1.00;;;;;;5068778;28;20457;-77
2021/06/30 06:01:53;;;;;;;25.13;23.07;;;19.30;1.00;;;;;;5065108;28;20462;-77
2021/06/30 06:04:20;;;;;;;25.90;23.80;;;19.30;1.00;;;;;;5072269;28;20451;-76
2021/06/30 06:06:46;;;;;;;27.10;24.90;;;19.20;1.00;;;;;;5062092;28;20459;-76
2021/06/30 06:09:13;;;;;;;27.70;25.30;;;19.10;1.00;;;;;;5071939;28;20469;-76
2021/06/30 06:11:39;;;;;;;25.23;23.13;;;19.10;1.00;;;;;;5058234;28;20495;-77
2021/06/30 06:14:06;;;;;;;27.20;25.00;;;19.10;1.00;;;;;;5070588;28;20644;-75
2021/06/30 06:16:34;;;;;;;23.83;22.03;;;19.10;1.00;;;;;;5060815;28;20451;-77
2021/06/30 06:19:01;;;;;;;26.90;24.73;;;19.20;1.00;;;;;;5071980;28;20458;-77
2021/06/30 06:21:27;;;;;;;24.10;21.93;;;19.20;1.00;;;;;;5060982;28;20440;-77
2021/06/30 06:23:54;;;;;;;26.30;24.10;;;19.10;1.00;;;;;;5072799;28;20439;-77
2021/06/30 06:26:21;;;;;;;27.23;24.50;;;19.20;1.00;;;;;;5065013;28;20442;-77
2021/06/30 06:28:48;;;;;;;27.03;24.60;;;19.20;1.00;;;;;;5067405;28;20462;-77
2021/06/30 06:31:16;;;;;;;26.93;24.43;;;19.20;1.00;;;;;;5065549;28;21009;-77
2021/06/30 06:33:44;;;;;;;27.00;24.70;;;19.20;1.00;;;;;;5065022;28;20471;-77
2021/06/30 06:36:11;;;;;;;26.97;24.77;;;19.20;1.00;;;;;;5068208;28;20407;-77
2021/06/30 06:38:38;;;;;;;29.67;26.90;;;19.30;1.00;;;;;;5066506;28;20554;-76
2021/06/30 06:41:05;;;;;;;30.53;27.83;;;19.20;1.00;;;;;;5072751;28;20561;-76
2021/06/30 06:43:34;;;;;;;30.17;27.37;;;19.20;1.00;;;;;;5068834;28;20440;-77
2021/06/30 06:46:01;;;;;;;29.23;26.80;;;19.30;1.00;;;;;;5072663;28;20449;-76
2021/06/30 06:48:28;;;;;;;29.50;27.07;;;19.30;1.00;;;;;;5065671;28;20493;-77
2021/06/30 06:50:56;;;;;;;27.30;24.90;;;19.30;1.00;;;;;;5070528;28;20490;-77
2021/06/30 06:53:23;;;;;;;25.47;23.30;;;19.30;1.00;;;;;;5064488;28;20450;-77
2021/06/30 06:55:51;;;;;;;28.13;25.73;;;19.30;1.00;;;;;;5064775;28;20517;-78
2021/06/30 06:58:18;;;;;;;25.40;23.40;;;19.30;1.00;;;;;;5065271;28;21447;-78
2021/06/30 07:00:45;;;;;;;25.30;23.20;;;19.40;1.00;;;;;;5067741;28;21254;-76
2021/06/30 07:03:11;;;;;;;25.53;23.33;;;19.40;1.00;;;;;;5064244;28;20484;-76
2021/06/30 07:05:38;;;;;;;23.13;21.13;;;19.30;1.00;;;;;;5063581;28;20453;-76
2021/06/30 07:08:06;;;;;;;24.47;22.40;;;19.30;1.00;;;;;;5064197;28;20457;-76
2021/06/30 07:10:34;;;;;;;24.73;22.70;;;19.30;1.00;;;;;;5062497;28;20460;-76
2021/06/30 07:13:00;;;;;;;23.33;21.37;;;19.20;1.00;;;;;;5070114;28;21081;-76
2021/06/30 07:15:27;;;;;;;24.90;22.90;;;19.30;1.00;;;;;;5062903;28;20553;-76
2021/06/30 07:17:54;;;;;;;23.37;21.23;;;19.40;1.00;;;;;;5067852;28;20506;-77
2021/06/30 07:20:20;;;;;;;23.80;21.80;;;19.40;1.00;;;;;;5058966;28;20459;-77
2021/06/30 07:22:47;;;;;;;21.57;19.87;;;19.40;1.00;;;;;;5066058;28;20541;-77
2021/06/30 07:25:18;;;;;;;21.30;19.50;;;19.40;1.00;;;;;;5060234;28;20461;-76
2021/06/30 07:27:45;;;;;;;23.73;21.73;;;19.40;1.00;;;;;;5070795;28;21015;-77
2021/06/30 07:30:13;;;;;;;21.53;19.80;;;19.30;1.00;;;;;;5059471;28;20465;-76
2021/06/30 07:32:39;;;;;;;22.90;21.03;;;19.30;1.00;;;;;;5067815;28;20477;-77
2021/06/30 07:35:06;;;;;;;18.70;17.13;;;19.40;1.00;;;;;;5064199;28;20681;-77
2021/06/30 07:37:33;;;;;;;20.60;18.80;;;19.30;1.00;;;;;;5066033;28;20877;-78
2021/06/30 07:39:59;;;;;;;19.70;18.20;;;19.30;1.00;;;;;;5066490;28;20449;-79
2021/06/30 07:42:27;;;;;;;20.57;18.97;;;19.30;1.00;;;;;;5063891;28;20470;-78
2021/06/30 07:44:54;;;;;;;22.33;20.43;;;19.40;1.00;;;;;;5067598;28;20453;-77
2021/06/30 07:47:21;;;;;;;21.27;19.50;;;19.40;1.00;;;;;;5063772;28;20459;-77
2021/06/30 07:49:47;;;;;;;22.63;20.27;;;19.40;1.00;;;;;;5069996;28;20948;-78
2021/06/30 07:52:14;;;;;;;21.10;19.20;;;19.40;1.00;;;;;;5063510;28;20469;-79
2021/06/30 07:54:40;;;;;;;18.00;16.50;;;19.40;1.00;;;;;;5073425;28;21229;-76
2021/06/30 07:57:07;;;;;;;18.40;16.90;;;19.40;1.00;;;;;;5058959;28;20464;-78
2021/06/30 07:59:35;;;;;;;16.60;15.20;;;19.30;1.00;;;;;;5070676;28;20477;-78
2021/06/30 08:02:02;;;;;;;17.37;15.83;;;19.30;1.00;;;;;;5058443;28;21724;-77
2021/06/30 08:04:28;;;;;;;17.43;16.03;;;19.30;1.00;;;;;;5068952;28;20514;-78
2021/06/30 08:06:55;;;;;;;18.57;16.97;;;19.30;1.00;;;;;;5059448;28;20418;-74
2021/06/30 08:09:22;;;;;;;20.53;18.67;;;19.30;1.00;;;;;;5065395;28;20458;-75
2021/06/30 08:11:48;;;;;;;20.53;18.77;;;19.40;1.00;;;;;;5060964;28;20481;-73
2021/06/30 08:14:15;;;;;;;16.63;15.03;;;19.40;1.00;;;;;;5061802;28;21643;-73
2021/06/30 08:16:44;;;;;;;17.67;16.07;;;19.40;1.00;;;;;;5067032;28;20459;-72
2021/06/30 08:19:11;;;;;;;17.60;16.23;;;19.40;1.00;;;;;;5062092;28;20441;-74
2021/06/30 08:21:37;;;;;;;14.87;13.70;;;19.40;1.00;;;;;;5062339;28;21636;-74
2021/06/30 08:24:05;;;;;;;17.43;16.03;;;19.40;1.00;;;;;;5058209;28;20454;-76
2021/06/30 08:26:31;;;;;;;16.83;15.30;;;19.30;1.00;;;;;;5067788;28;20493;-73
2021/06/30 08:28:58;;;;;;;17.27;15.97;;;19.30;1.00;;;;;;5060446;28;20459;-75
2021/06/30 08:31:26;;;;;;;17.33;15.90;;;19.30;1.00;;;;;;5066362;28;20548;-75
2021/06/30 08:33:54;;;;;;;16.73;15.43;;;19.20;1.00;;;;;;5058760;28;20562;-73
2021/06/30 08:36:21;;;;;;;18.27;16.67;;;19.20;1.00;;;;;;5065365;28;20546;-74
2021/06/30 08:38:47;;;;;;;18.20;16.80;;;19.20;1.00;;;;;;5055967;28;20452;-77
2021/06/30 08:41:16;;;;;;;18.30;16.70;;;19.20;1.00;;;;;;5068736;28;21435;-76
2021/06/30 08:43:43;;;;;;;19.83;18.23;;;19.30;1.00;;;;;;5056843;28;20891;-77
2021/06/30 08:46:10;;;;;;;19.67;17.83;;;19.30;1.00;;;;;;5062050;28;20509;-77
2021/06/30 08:48:38;;;;;;;18.90;17.20;;;19.30;1.00;;;;;;5059110;28;20659;-76
2021/06/30 08:51:09;;;;;;;17.43;15.93;;;19.40;1.00;;;;;;5063074;28;20512;-77
2021/06/30 08:53:37;;;;;;;17.90;16.40;;;19.30;1.00;;;;;;5066065;28;21830;-77
2021/06/30 08:56:05;;;;;;;15.07;13.77;;;19.30;1.00;;;;;;5062056;28;20474;-77
2021/06/30 08:58:31;;;;;;;10.43;9.53;;;19.30;1.00;;;;;;5059618;28;20435;-78
2021/06/30 09:01:00;;;;;;;11.40;10.50;;;19.20;1.00;;;;;;5057502;28;20448;-79
2021/06/30 09:03:26;;;;;;;12.30;11.13;;;19.10;1.00;;;;;;5071427;28;21218;-76
2021/06/30 09:09:15;;;;;;;13.17;12.17;;;19.10;1.00;;;;;;5064849;28;20734;-77
2021/06/30 09:11:43;;;;;;;13.63;12.43;;;19.00;1.00;;;;;;5048867;28;20984;-77
2021/06/30 09:14:18;;;;;;;13.73;12.53;;;19.00;1.00;;;;;;5059383;28;20463;-77
2021/06/30 09:17:03;;;;;;;15.10;13.80;;;18.90;1.00;;;;;;5069889;28;20469;-77
2021/06/30 09:19:50;;;;;;;13.83;12.73;;;19.00;1.00;;;;;;5061717;28;20465;-78
2021/06/30 09:22:18;;;;;;;12.70;11.50;;;19.00;1.00;;;;;;5064978;28;21110;-77
2021/06/30 09:24:51;;;;;;;12.90;11.70;;;19.00;1.00;;;;;;5060703;28;21218;-77
2021/06/30 09:27:19;;;;;;;12.63;11.50;;;18.90;1.00;;;;;;5062789;28;21142;-75
2021/06/30 09:29:46;;;;;;;12.73;11.60;;;18.90;1.00;;;;;;5061292;28;21184;-76
2021/06/30 09:32:15;;;;;;;11.80;10.80;;;18.90;1.00;;;;;;5069564;28;20581;-76
2021/06/30 09:34:42;;;;;;;11.23;10.23;;;18.90;1.00;;;;;;5067224;28;20443;-76
2021/06/30 09:37:10;;;;;;;12.10;11.10;;;18.80;1.00;;;;;;5065439;28;20430;-76
2021/06/30 09:39:39;;;;;;;11.17;10.27;;;18.80;1.00;;;;;;5069204;28;20439;-76
2021/06/30 09:42:09;;;;;;;13.40;12.30;;;18.80;1.00;;;;;;5067052;28;20462;-75
2021/06/30 09:44:36;;;;;;;12.87;11.67;;;18.80;1.00;;;;;;5067243;28;20454;-76
2021/06/30 09:47:05;;;;;;;13.90;12.70;;;18.80;1.00;;;;;;5059339;28;21105;-77
2021/06/30 09:49:32;;;;;;;10.57;9.67;;;18.90;1.00;;;;;;5070934;28;20447;-78
2021/06/30 09:52:10;;;;;;;9.63;8.83;;;18.90;1.00;;;;;;5062105;28;20933;-78
2021/06/30 09:54:38;;;;;;;8.90;8.10;;;18.90;1.00;;;;;;5066385;28;21402;-78
2021/06/30 09:57:07;;;;;;;8.07;7.50;;;18.70;1.00;;;;;;5060236;28;21323;-77
2021/06/30 09:59:37;;;;;;;8.70;8.00;;;18.70;1.00;;;;;;5060519;28;20439;-78
2021/06/30 10:02:06;;;;;;;7.50;6.90;;;18.70;1.00;;;;;;5062860;28;20451;-77
2021/06/30 10:04:35;;;;;;;7.77;7.07;;;18.80;1.00;;;;;;5063367;28;20455;-77
2021/06/30 10:07:10;;;;;;;9.17;8.47;;;18.80;1.00;;;;;;5061174;28;20525;-77
2021/06/30 10:09:37;;;;;;;8.13;7.43;;;18.80;1.00;;;;;;5062288;28;20934;-76
2021/06/30 10:12:08;;;;;;;8.57;7.70;;;18.80;1.00;;;;;;5071412;28;20467;-77
2021/06/30 10:14:37;;;;;;;9.87;9.07;;;18.80;1.00;;;;;;5057822;28;20915;-77
2021/06/30 10:17:04;;;;;;;11.33;10.53;;;18.90;1.00;;;;;;5068354;28;20459;-77
2021/06/30 10:19:31;;;;;;;11.87;10.97;;;18.90;1.00;;;;;;5062194;28;20439;-76
2021/06/30 10:21:58;;;;;;;14.33;13.13;;;18.90;1.00;;;;;;5065785;28;20446;-77
2021/06/30 10:24:25;;;;;;;14.40;13.30;;;19.00;1.00;;;;;;5062533;28;20446;-76
2021/06/30 10:26:53;;;;;;;14.23;13.13;;;19.10;1.00;;;;;;5067898;28;21227;-76
2021/06/30 10:29:24;;;;;;;13.20;12.10;;;19.00;1.00;;;;;;5063950;28;20463;-78
2021/06/30 10:31:55;;;;;;;12.97;11.97;;;19.00;1.00;;;;;;5062338;28;20486;-77
2021/06/30 10:34:33;;;;;;;11.10;10.13;;;19.00;1.00;;;;;;5063325;28;20823;-76
2021/06/30 10:37:00;;;;;;;13.80;12.70;;;18.80;1.00;;;;;;5066897;28;20473;-76
2021/06/30 10:39:42;;;;;;;13.80;12.70;;;18.80;1.00;;;;;;5067499;28;21071;-76
2021/06/30 10:42:17;;;;;;;14.73;13.43;;;18.90;1.00;;;;;;5063176;28;20458;-77
2021/06/30 10:44:46;;;;;;;16.20;14.90;;;18.90;1.00;;;;;;5069632;28;20443;-76
2021/06/30 10:50:31;;;;;;;16.67;15.30;;;18.90;1.00;;;;;;5150139;27;20542;-75
2021/06/30 10:53:34;;;;;;;16.83;15.53;;;19.00;1.00;;;;;;5125316;27;20443;-77
2021/06/30 10:56:02;;;;;;;16.57;15.17;;;19.00;1.00;;;;;;5118195;27;20430;-77
2021/06/30 10:58:30;;;;;;;16.90;15.60;;;18.90;1.00;;;;;;5127861;27;20456;-77
2021/06/30 11:01:12;;;;;;;16.33;15.03;;;18.90;1.00;;;;;;5119093;27;20449;-76
2021/06/30 11:03:49;;;;;;;17.60;16.20;;;19.00;1.00;;;;;;5121042;27;20437;-77
2021/06/30 11:06:31;;;;;;;16.63;15.33;;;18.90;1.00;;;;;;5122516;27;20492;-78
2021/06/30 11:09:01;;;;;;;16.80;15.50;;;18.90;1.00;;;;;;5121311;27;20464;-76
2021/06/30 11:12:02;;;;;;;17.57;16.17;;;18.90;1.00;;;;;;5122763;27;20472;-76
2021/06/30 11:14:42;;;;;;;17.33;15.80;;;18.90;1.00;;;;;;5120951;27;20454;-76
2021/06/30 11:17:09;;;;;;;15.63;14.43;;;19.00;1.00;;;;;;5122619;27;20460;-77
2021/06/30 11:19:47;;;;;;;15.57;14.27;;;19.00;1.00;;;;;;5121702;27;20479;-77
2021/06/30 11:22:32;;;;;;;16.73;15.53;;;18.90;1.00;;;;;;5122211;27;20970;-77
2021/06/30 11:25:03;;;;;;;18.13;16.67;;;18.90;1.00;;;;;;5123841;27;20451;-76
2021/06/30 11:27:44;;;;;;;16.10;14.80;;;18.90;1.00;;;;;;5120092;27;20462;-77
2021/06/30 11:30:13;;;;;;;16.80;15.40;;;18.90;1.00;;;;;;5129635;27;20468;-76
2021/06/30 11:32:48;;;;;;;17.43;16.07;;;18.80;1.00;;;;;;5117549;27;20448;-78
2021/06/30 11:35:44;;;;;;;18.80;17.30;;;18.70;1.00;;;;;;5119949;27;20488;-76
2021/06/30 11:38:20;;;;;;;18.23;16.73;;;18.70;1.00;;;;;;5124501;27;20546;-77
2021/06/30 11:41:00;;;;;;;19.40;17.80;;;18.70;1.00;;;;;;5122240;27;20452;-77
2021/06/30 11:43:30;;;;;;;18.70;17.20;;;18.70;1.00;;;;;;5124065;27;20525;-76
2021/06/30 11:46:01;;;;;;;19.97;18.10;;;18.70;1.00;;;;;;5117539;27;21014;-77
2021/06/30 11:48:31;;;;;;;20.63;18.83;;;18.70;1.00;;;;;;5124315;27;20556;-77
2021/06/30 11:51:02;;;;;;;19.70;17.90;;;18.70;1.00;;;;;;5121753;27;20505;-76
2021/06/30 11:53:43;;;;;;;19.20;17.60;;;18.80;1.00;;;;;;5121092;27;20475;-76
2021/06/30 11:56:12;;;;;;;21.43;19.63;;;18.80;1.00;;;;;;5119398;27;20444;-76
2021/06/30 11:58:51;;;;;;;22.13;20.33;;;18.80;1.00;;;;;;5120956;27;20437;-77
2021/06/30 12:01:23;;;;;;;20.60;18.90;;;18.70;1.00;;;;;;5109652;27;20992;-76
2021/06/30 12:04:05;;;;;;;20.40;18.60;;;18.70;1.00;;;;;;5107649;27;20470;-77
2021/06/30 12:06:33;;;;;;;18.73;17.23;;;18.70;1.00;;;;;;5110185;27;20580;-76
2021/06/30 12:09:15;;;;;;;20.70;18.93;;;18.70;1.00;;;;;;5106313;27;20911;-77
2021/06/30 12:11:44;;;;;;;18.50;17.00;;;18.60;1.00;;;;;;5109679;27;20451;-77
2021/06/30 12:14:12;;;;;;;19.70;18.10;;;18.60;1.00;;;;;;5106799;27;20447;-78
2021/06/30 12:16:44;;;;;;;19.53;18.00;;;18.60;1.00;;;;;;5109025;27;20449;-77
2021/06/30 12:19:12;;;;;;;17.90;16.30;;;18.60;1.00;;;;;;5109484;27;20487;-78
2021/06/30 12:21:40;;;;;;;18.83;17.23;;;18.50;1.00;;;;;;5107254;27;21274;-78
2021/06/30 12:24:20;;;;;;;19.37;17.80;;;18.50;1.00;;;;;;5111644;27;20465;-76
2021/06/30 12:27:03;;;;;;;17.60;16.30;;;18.50;1.00;;;;;;5105987;27;20432;-77
2021/06/30 12:29:32;;;;;;;18.03;16.50;;;18.60;1.00;;;;;;5109826;27;20966;-75
2021/06/30 12:31:59;;;;;;;17.90;16.50;;;18.60;1.00;;;;;;5108152;27;20445;-76
2021/06/30 12:34:26;;;;;;;18.17;16.60;;;18.60;1.00;;;;;;5111231;27;21217;-76
2021/06/30 12:36:53;;;;;;;16.80;15.40;;;18.60;1.00;;;;;;5109210;27;20437;-76
2021/06/30 12:39:27;;;;;;;16.77;15.27;;;18.60;1.00;;;;;;5109586;27;20449;-77
2021/06/30 12:41:57;;;;;;;14.80;13.60;;;18.50;1.00;;;;;;5105329;27;20476;-76
2021/06/30 12:44:24;;;;;;;15.07;13.80;;;18.50;1.00;;;;;;5107082;27;20460;-76
2021/06/30 12:47:08;;;;;;;12.30;11.30;;;18.50;1.00;;;;;;5114683;27;20432;-77
2021/06/30 12:49:35;;;;;;;9.60;8.90;;;18.50;1.00;;;;;;5115122;27;20476;-75
2021/06/30 12:52:02;;;;;;;14.30;12.97;;;18.50;1.00;;;;;;5109146;27;20567;-77